Terminal Aerodrome Forecast
Issued by NWS Cleveland, OH

Home | Current Version | Previous Version | Graphics & Text | Print | Product List | Glossary On
Versions: 1 2 3 4 5 6 7 8 9 10 11 12 13 14 15 16 17
000
FTUS41 KCLE 220534
TAFCAK
TAF
KCAK 220534Z 2206/2306 22007KT P6SM SCT015 BKN035
      TEMPO 2206/2207 4SM -SHRA BR BKN015
     FM220800 25006KT P6SM BKN035
      TEMPO 2208/2212 BKN020
     FM221500 27011G20KT P6SM SCT250
     FM230000 23006KT P6SM FEW250=

USA.gov is the U.S. government's official web portal to all federal, state and local government web resources and services.